Pagrindinis puslapis
METAR-TAF:

METAR-TAF

Oro uostai :

Nalčikas, Rusija

platuma: 43-30-46N, ilguma: 043-38-12E, Aukštis: 445 m

Dabartinis oras

Ataskaita buvo paskelbta 36 minutes, ne 05:30 UTC
Vėjas 4 kt iš Vakarų/Pietvakarių
Temperatūra 1°C
Drėgmė 75%
Slėgis 1019 hPa
Matomumas 10 km arba daugiau
Su prošvaistėmis

METAR: URMN 100530Z 24002MPS 9999 BKN/// 01/M03 Q1019 R24/010070 NOSIG RMK QFE728

Laikas: 10:06 (06:06 UTC)

Prognozė

Ataskaita buvo paskelbta 1 valandą ir 6 minutes, ne 05:00 UTC
Prognozė galioja nuo 10 metu 06 UTC su 10 metu 15 UTC
Vėjas 6 kt iš Vakarų/Pietvakarių
Matomumas 10 km arba daugiau
Išsisklaidę debesys ne aukštis 2000 ft
Laikinai
nuo 10 metu 06 UTC su 10 metu 09 UTC
Matomumas: 3100 m
Su prošvaistėmis ne aukštis 1100 ft
rūkana

TAF: URMN 100500Z 1006/1015 24003MPS 9999 SCT020 TEMPO 1006/1009 3100 BR BKN011

Orai ataskaitas ir orų prognozės (METAR, TAF).

turimą stotys yra geltonos ir raudonos taškus žemėlapyje.

Perkelti pele per norėdami pamatyti stoties vardą.

Tada spustelėkite, norėdami matyti oro stebėjimo ir prognozės.

Norėdami pakeisti žemėlapį: spustelėkite ant žalios mygtukų su juodo kryžiaus žemyn,; žalią mygtuką su brūkšneliu, jei norite nutolinti; arba žalių rodyklių gretimoms žemėlapius.


METAR-TAF: